Latest Weather Observations for Hamilton

IDV60801

Issued at 5:22 pm EDT Thursday 28 January 2021 (issued every 10 minutes, with the page automatically refreshed every 10 minutes)

About weather observations | Map of weather stations | Latest weather observations for VIC | Other Formats
Station Details ID: 090173 Name: HAMILTON AIRPORT Lat: -37.65 Lon: 142.06 Height: 241.1 m
Data from the previous 72 hours. | See also: Recent months at Hamilton
Date/Time
EDT
Temp
°C
App
Temp
°C
Dew
Point
°C
Rel
Hum
%
Delta-T
°C
Wind Press
QNH
hPa
Press
MSL
hPa
Rain since
9am
mm
Dir  Spd
km/h
Gust
km/h
Spd
kts
Gust
kts
28/05:00pm 26.9 24.4 13.6 44 7.9 NNE 19 26 10 14 1011.5 1010.7 0.0
28/04:30pm 28.5 24.3 13.6 40 9.0 ENE 28 39 15 21 1011.3 1010.5 0.0
28/04:00pm 27.5 24.8 13.4 41 8.4 E 20 32 11 17 1012.0 1011.3 0.0
28/03:30pm 28.2 25.8 12.5 37 9.3 ENE 17 26 9 14 1012.3 1011.6 0.0
28/03:00pm 27.9 25.2 13.4 40 8.7 NE 20 30 11 16 1013.0 1012.3 0.0
28/02:30pm 27.8 24.7 13.3 40 8.6 NE 22 30 12 16 1013.2 1012.5 0.0
28/02:00pm 27.0 23.6 13.7 44 8.0 ENE 24 33 13 18 1013.6 1012.9 0.0
28/01:30pm 27.5 23.3 13.4 41 8.4 ENE 28 35 15 19 1014.1 1013.4 0.0
28/01:00pm 25.7 21.5 13.5 46 7.2 ENE 28 39 15 21 1014.3 1013.6 0.0
28/12:30pm 24.7 20.3 13.0 48 6.9 ENE 28 41 15 22 1014.4 1013.7 0.0
28/12:00pm 23.7 19.1 13.6 53 5.9 E 30 41 16 22 1014.2 1013.5 0.0
28/11:30am 22.0 17.8 13.4 58 5.0 E 28 35 15 19 1015.0 1014.3 0.0
28/11:00am 21.0 16.7 13.2 61 4.5 E 28 33 15 18 1015.5 1014.8 0.0
28/10:30am 20.4 16.4 13.1 63 4.2 E 26 32 14 17 1015.8 1015.1 0.0
28/10:00am 19.6 15.3 13.1 66 3.7 E 28 33 15 18 1016.2 1015.5 0.0
28/09:30am 18.3 13.9 13.0 71 3.0 E 28 35 15 19 1016.3 1015.6 0.0
28/09:00am 17.6 12.8 12.9 74 2.7 E 30 37 16 20 1016.3 1015.6 0.0
28/08:30am 16.8 11.9 12.5 76 2.4 E 30 39 16 21 1015.9 1015.2 0.0
28/08:00am 15.6 10.7 12.5 82 1.7 E 30 37 16 20 1015.8 1015.1 0.0
28/07:30am 15.0 10.0 12.3 84 1.5 E 30 37 16 20 1015.3 1014.5 0.0
28/07:00am 14.9 10.2 12.0 83 1.6 E 28 35 15 19 1015.0 1014.3 0.0
28/06:30am 14.8 10.5 11.9 83 1.6 E 26 35 14 19 1014.7 1014.0 0.0
28/06:22am 14.8 10.0 11.8 82 1.6 E 28 35 15 19 1014.5 1013.8 0.0
28/06:09am 15.0 9.5 11.8 81 1.7 ESE 32 41 17 22 1014.5 1013.8 0.0
28/06:00am 15.0 9.3 11.8 81 1.7 ESE 33 43 18 23 1014.4 1013.7 0.0
28/05:30am 15.2 10.4 11.8 80 1.9 ESE 28 37 15 20 1014.5 1013.8 0.0
28/05:00am 15.1 10.0 11.9 81 1.8 ESE 30 39 16 21 1014.0 1013.3 0.0
28/04:30am 15.1 10.8 12.1 82 1.6 ESE 26 35 14 19 1014.1 1013.4 0.0
28/04:00am 15.1 10.4 11.9 81 1.8 ESE 28 35 15 19 1014.3 1013.6 0.0
28/03:30am 15.5 11.2 12.1 80 1.9 ESE 26 33 14 18 1014.9 1014.2 0.0
28/03:00am 15.7 11.4 12.1 79 2.0 ESE 26 33 14 18 1014.9 1014.2 0.0
28/02:30am 15.8 11.2 12.2 79 2.0 E 28 39 15 21 1014.9 1014.2 0.0
28/02:00am 15.5 11.8 12.6 83 1.6 ESE 24 32 13 17 1014.9 1014.2 0.0
28/01:30am 15.2 11.1 12.7 85 1.4 ESE 26 35 14 19 1015.1 1014.4 0.0
28/01:00am 14.7 11.3 12.4 86 1.3 ESE 22 28 12 15 1015.3 1014.5 0.0
28/12:30am 15.0 11.9 12.3 84 1.5 ESE 20 28 11 15 1015.7 1015.0 0.0
28/12:00am 15.5 11.7 12.4 82 1.7 ESE 24 33 13 18 1015.6 1014.9 0.0
 
Date/Time
EDT
Temp
°C
App
Temp
°C
Dew
Point
°C
Rel
Hum
%
Delta-T
°C
Wind Press
QNH
hPa
Press
MSL
hPa
Rain since
9am
mm
Dir  Spd
km/h
Gust
km/h
Spd
kts
Gust
kts
27/11:30pm 15.9 10.5 12.3 79 2.0 ESE 32 44 17 24 1015.9 1015.2 0.0
27/11:00pm 16.3 10.4 12.5 78 2.1 ESE 35 46 19 25 1016.0 1015.3 0.0
27/10:30pm 15.8 11.4 11.8 77 2.2 ESE 26 35 14 19 1015.8 1015.1 0.0
27/10:00pm 16.1 11.8 10.6 70 3.0 ESE 24 32 13 17 1016.0 1015.3 0.0
27/09:30pm 16.5 12.3 9.9 65 3.5 ESE 22 30 12 16 1016.0 1015.3 0.0
27/09:00pm 16.7 12.2 8.4 58 4.3 ESE 22 30 12 16 1015.4 1014.7 0.0
27/08:30pm 17.4 12.9 6.9 50 5.3 SE 20 33 11 18 1015.5 1014.8 0.0
27/08:00pm 17.6 13.9 10.2 62 4.0 SSE 20 28 11 15 1015.4 1014.7 0.0
27/07:30pm 18.5 13.2 9.8 57 4.7 SSE 28 37 15 20 1014.3 1013.6 0.0
27/07:00pm 19.3 13.2 8.3 49 5.8 SSE 30 43 16 23 1013.8 1013.1 0.0
27/06:32pm 20.6 15.0 8.6 46 6.4 SSE 28 46 15 25 1013.9 1013.2 0.0
27/06:30pm 20.5 14.5 8.5 46 6.4 SSE 30 46 16 25 1014.0 1013.3 0.0
27/06:22pm 20.9 15.2 8.2 44 6.7 SSE 28 46 15 25 1014.0 1013.3 0.0
27/06:00pm 21.3 15.6 8.2 43 6.9 SE 28 39 15 21 1014.3 1013.6 0.0
27/05:30pm 21.7 14.9 6.8 38 7.7 SE 32 43 17 23 1014.4 1013.7 0.0
27/05:00pm 21.2 14.3 7.1 40 7.3 SE 33 46 18 25 1014.6 1013.9 0.0
27/04:30pm 21.9 15.1 7.7 40 7.5 SE 33 44 18 24 1014.7 1014.0 0.0
27/04:00pm 21.7 14.9 6.8 38 7.7 SE 32 44 17 24 1014.9 1014.2 0.0
27/03:30pm 21.1 14.0 6.2 38 7.6 SE 33 44 18 24 1015.7 1015.0 0.0
27/03:10pm 20.7 14.3 7.0 41 7.1 SE 30 48 16 26 1015.7 1015.0 0.0
27/03:00pm 21.4 14.6 6.9 39 7.5 SE 32 44 17 24 1015.7 1015.0 0.0
27/02:30pm 20.5 13.8 7.5 43 6.8 SE 32 43 17 23 1015.9 1015.2 0.0
27/02:00pm 19.6 12.3 7.0 44 6.4 SE 35 48 19 26 1015.7 1015.0 0.0
27/01:30pm 18.8 11.2 6.0 43 6.4 ESE 35 48 19 26 1016.0 1015.3 0.0
27/01:00pm 19.1 11.5 5.9 42 6.6 ESE 35 46 19 25 1016.1 1015.4 0.0
27/12:30pm 18.2 10.7 6.1 45 6.0 SE 35 46 19 25 1016.4 1015.7 0.0
27/12:00pm 17.4 10.2 5.7 46 5.7 SE 33 48 18 26 1016.7 1016.0 0.0
27/11:30am 16.8 8.7 5.4 47 5.5 ESE 37 50 20 27 1016.8 1016.1 0.0
27/11:00am 16.1 8.4 5.4 49 5.2 ESE 35 44 19 24 1017.0 1016.3 0.0
27/10:30am 15.3 7.1 4.7 49 5.0 ESE 37 52 20 28 1016.9 1016.2 0.0
27/10:00am 14.7 6.1 4.7 51 4.7 ESE 39 54 21 29 1016.8 1016.1 0.0
27/09:30am 13.7 4.7 4.6 54 4.3 ESE 41 54 22 29 1016.7 1016.0 0.0
27/09:00am 13.0 4.4 4.9 58 3.8 SE 39 50 21 27 1016.4 1015.7 0.2
27/08:30am 12.2 4.4 4.9 61 3.4 ESE 35 48 19 26 1016.0 1015.3 0.2
27/08:00am 10.8 5.6 5.6 70 2.4 ESE 22 32 12 17 1016.0 1015.3 0.2
27/07:30am 9.5 5.2 5.3 75 1.9 ESE 17 20 9 11 1015.9 1015.2 0.2
27/07:00am 8.8 4.1 5.0 77 1.7 SE 19 22 10 12 1015.5 1014.8 0.2
27/06:30am 8.6 4.2 4.6 76 1.8 SE 17 22 9 12 1015.3 1014.5 0.2
27/06:00am 8.9 3.9 4.7 75 1.9 SE 20 26 11 14 1014.7 1014.0 0.2
27/05:30am 8.8 4.4 5.0 77 1.7 SE 17 24 9 13 1014.7 1014.0 0.2
27/05:00am 8.3 4.8 5.4 82 1.3 SE 13 17 7 9 1014.6 1013.9 0.2
27/04:30am 7.3 3.9 3.9 79 1.5 SE 11 13 6 7 1014.6 1013.9 0.2
27/04:00am 8.1 3.9 3.9 75 1.8 SE 15 17 8 9 1014.5 1013.8 0.2
27/03:30am 8.6 4.1 4.2 74 2.0 SE 17 20 9 11 1014.3 1013.6 0.2
27/03:00am 9.2 4.4 4.6 73 2.1 SE 19 26 10 14 1013.8 1013.1 0.2
27/02:30am 9.6 4.8 4.4 70 2.3 SE 19 24 10 13 1013.8 1013.1 0.2
27/02:00am 10.4 5.0 4.5 67 2.7 SE 22 30 12 16 1013.9 1013.2 0.2
27/01:30am 10.9 4.8 4.6 65 2.9 SE 26 39 14 21 1013.9 1013.2 0.2
27/01:00am 11.4 5.5 5.7 68 2.7 SE 26 33 14 18 1014.0 1013.3 0.2
27/12:30am 11.4 7.0 7.3 76 2.0 SSE 20 30 11 16 1014.0 1013.3 0.2
27/12:00am 11.6 6.8 7.3 75 2.1 SSE 22 33 12 18 1013.6 1012.9 0.2
 
Date/Time
EDT
Temp
°C
App
Temp
°C
Dew
Point
°C
Rel
Hum
%
Delta-T
°C
Wind Press
QNH
hPa
Press
MSL
hPa
Rain since
9am
mm
Dir  Spd
km/h
Gust
km/h
Spd
kts
Gust
kts
26/11:30pm 12.2 7.5 7.7 74 2.2 SSE 22 33 12 18 1013.7 1013.0 0.2
26/11:00pm 12.4 8.2 8.3 76 2.1 SSE 20 28 11 15 1013.3 1012.6 0.2
26/10:30pm 12.5 7.9 8.2 75 2.2 SSE 22 30 12 16 1013.1 1012.4 0.2
26/10:00pm 12.6 7.3 8.3 75 2.2 SSE 26 33 14 18 1012.7 1012.0 0.2
26/09:30pm 13.0 7.4 8.7 75 2.2 SSE 28 35 15 19 1012.4 1011.7 0.2
26/09:00pm 13.5 8.3 9.0 74 2.3 SSE 26 35 14 19 1011.9 1011.2 0.2
26/08:30pm 14.2 8.6 8.8 70 2.8 SSE 28 43 15 23 1011.5 1010.7 0.2
26/08:00pm 14.9 9.8 9.3 69 2.9 SSE 26 33 14 18 1010.9 1010.1 0.2
26/07:30pm 15.1 9.3 9.5 69 2.9 SSE 30 39 16 21 1010.4 1009.7 0.2
26/07:00pm 16.2 10.6 10.1 67 3.3 SSE 30 41 16 22 1009.8 1009.1 0.2
26/06:30pm 16.7 11.8 10.1 65 3.5 SSE 26 35 14 19 1009.3 1008.6 0.2
26/06:00pm 17.4 11.7 9.8 61 4.1 SSE 30 39 16 21 1008.9 1008.2 0.2
26/05:30pm 18.1 12.8 10.0 59 4.4 S 28 35 15 19 1008.6 1007.9 0.2
26/05:00pm 18.4 13.1 9.7 57 4.7 SSE 28 33 15 18 1008.3 1007.6 0.2
26/04:30pm 19.3 14.4 8.6 50 5.6 S 24 37 13 20 1007.8 1007.0 0.2
26/04:00pm 19.5 13.8 8.5 49 5.8 S 28 35 15 19 1007.8 1007.0 0.2
26/03:30pm 20.6 15.8 8.9 47 6.2 S 24 32 13 17 1007.4 1006.6 0.2
26/03:00pm 20.8 15.3 9.1 47 6.3 S 28 41 15 22 1007.5 1006.7 0.2
26/02:30pm 19.5 14.1 9.4 52 5.4 S 28 43 15 23 1007.4 1006.6 0.2
26/02:00pm 20.0 15.9 10.1 53 5.4 SSW 22 32 12 17 1007.3 1006.5 0.2
26/01:30pm 19.4 15.1 10.7 57 4.8 SSW 24 32 13 17 1007.2 1006.4 0.2
26/01:00pm 19.8 15.7 12.6 63 4.1 SSW 26 35 14 19 1006.9 1006.1 0.2
26/12:30pm 18.9 15.5 12.6 67 3.6 SSW 22 35 12 19 1007.0 1006.2 0.2
26/12:00pm 17.1 13.3 12.4 74 2.6 SSW 24 33 13 18 1006.8 1006.0 0.2
26/11:40am 17.5 14.2 14.0 80 2.0 S 24 33 13 18 1006.2 1005.5 0.2
26/11:30am 16.4 13.6 13.3 82 1.8 S 20 35 11 19 1006.0 1005.3 0.2
26/11:25am 16.7 14.4 14.0 84 1.6 S 19 24 10 13 1006.0 1005.3 0.2
26/11:00am 15.6 12.5 13.4 87 1.2 S 22 28 12 15 1006.2 1005.5 0.2
26/10:30am 16.5 14.2 14.7 89 1.0 S 20 26 11 14 1005.8 1005.1 0.2
26/10:05am 15.5 14.5 14.7 95 0.5 SSW 13 17 7 9 1005.8 1005.1 0.2
26/10:00am 15.1 14.4 14.3 95 0.5 S 11 17 6 9 1005.8 1005.1 0.2
26/09:52am 14.9 13.4 14.1 95 0.5 S 15 22 8 12 1005.7 1005.0 0.2
26/09:39am 14.8 12.5 14.0 95 0.5 S 19 26 10 14 1005.5 1004.8 0.2
26/09:30am 14.7 12.3 13.9 95 0.5 S 19 24 10 13 1005.2 1004.5 0.0
26/09:23am 14.8 12.5 14.0 95 0.5 S 19 24 10 13 1005.1 1004.4 0.0
26/09:12am 14.8 12.5 14.2 96 0.3 S 19 22 10 12 1005.1 1004.4 0.0
26/09:00am 14.8 12.5 14.2 96 0.3 S 19 28 10 15 1004.9 1004.2 14.6
26/08:30am 14.7 12.4 14.2 97 0.3 SSW 19 24 10 13 1004.4 1003.6 14.6
26/08:00am 14.7 12.5 14.4 98 0.2 SSW 19 26 10 14 1003.9 1003.1 14.6
26/07:30am 14.7 12.5 14.4 98 0.2 SSW 19 24 10 13 1003.4 1002.6 14.6
26/07:29am 14.7 12.5 14.4 98 0.2 SSW 19 22 10 12 1003.4 1002.6 14.6
26/07:00am 15.1 13.0 14.8 98 0.2 SSW 19 22 10 12 1003.1 1002.3 14.6
26/06:58am 15.0 12.9 14.7 98 0.2 SSW 19 26 10 14 1003.0 1002.2 14.6
26/06:30am 15.1 13.0 14.8 98 0.2 SSW 19 26 10 14 1002.6 1001.8 14.6
26/06:00am 15.3 13.7 15.0 98 0.2 SSW 17 22 9 12 1002.2 1001.4 14.6
26/05:39am 15.3 13.1 15.0 98 0.2 SSW 20 26 11 14 1001.8 1001.1 14.6
26/05:30am 15.4 13.3 15.1 98 0.2 SSW 20 28 11 15 1001.7 1001.0 14.6
26/05:02am 15.7 13.3 15.4 98 0.2 SSW 22 30 12 16 1001.3 1000.6 14.6
26/05:00am 15.7 12.9 15.4 98 0.2 SSW 24 32 13 17 1001.3 1000.6 14.6
26/04:58am 15.7 12.9 15.4 98 0.2 SSW 24 32 13 17 1001.2 1000.5 14.6
26/04:34am 16.5 14.8 16.2 98 0.2 SSW 20 28 11 15 1000.9 1000.2 14.4
26/04:31am 16.5 14.4 16.2 98 0.2 SSW 22 30 12 16 1000.9 1000.2 14.4
26/04:30am 16.5 14.4 16.2 98 0.2 SSW 22 30 12 16 1000.8 1000.0 14.4
26/04:01am 16.8 14.4 16.5 98 0.2 SSW 24 28 13 15 1000.6 999.8 14.4
26/04:00am 16.8 14.8 16.5 98 0.2 SSW 22 28 12 15 1000.6 999.8 14.4
26/03:43am 17.2 15.0 16.9 98 0.2 SSW 24 32 13 17 1000.4 999.6 14.4
26/03:30am 17.4 17.0 17.1 98 0.2 SW 15 22 8 12 1000.4 999.6 14.4
26/03:00am 17.4 16.6 17.1 98 0.2 SW 17 20 9 11 1000.6 999.8 14.2
26/02:37am 17.5 17.1 17.2 98 0.2 WSW 15 20 8 11 1000.6 999.8 14.2
26/02:30am 17.5 17.5 17.2 98 0.2 WSW 13 15 7 8 1000.6 999.8 14.2
26/02:00am 17.5 18.3 17.2 98 0.2 SW 9 11 5 6 1000.5 999.7 14.2
26/01:46am 17.5 18.2 17.0 97 0.3 SW 9 11 5 6 1000.5 999.7 14.2
26/01:30am 17.5 17.4 17.0 97 0.3 SSW 13 17 7 9 1000.3 999.5 14.2
26/01:19am 17.5 17.0 17.0 97 0.3 SW 15 19 8 10 1000.6 999.8 14.0
26/01:00am 17.8 18.6 17.3 97 0.3 SW 9 11 5 6 1000.6 999.8 14.0
26/12:39am 17.8 18.6 17.3 97 0.3 SW 9 11 5 6 1000.5 999.7 14.0
26/12:30am 17.9 19.1 17.4 97 0.3 WSW 7 9 4 5 1000.7 999.9 14.0
26/12:16am 17.8 18.6 17.3 97 0.3 WSW 9 9 5 5 1000.7 999.9 14.0
26/12:00am 17.8 18.6 17.3 97 0.3 WSW 9 11 5 6 1000.6 999.8 14.0
 
Date/Time
EDT
Temp
°C
App
Temp
°C
Dew
Point
°C
Rel
Hum
%
Delta-T
°C
Wind Press
QNH
hPa
Press
MSL
hPa
Rain since
9am
mm
Dir  Spd
km/h
Gust
km/h
Spd
kts
Gust
kts
25/11:38pm 17.7 18.4 17.1 96 0.4 WSW 9 11 5 6 1000.7 999.9 14.0
25/11:30pm 17.7 18.4 17.1 96 0.4 WSW 9 11 5 6 1000.6 999.8 14.0
25/11:09pm 17.7 19.0 17.1 96 0.4 SW 6 7 3 4 1000.5 999.7 14.0
25/11:00pm 17.7 18.8 17.1 96 0.4 SW 7 9 4 5 1000.4 999.6 14.0
25/10:48pm 17.7 18.0 17.1 96 0.4 SW 11 13 6 7 1000.5 999.7 14.0
25/10:30pm 17.8 17.7 17.0 95 0.5 WSW 13 19 7 10 1000.5 999.7 13.6
25/10:29pm 17.9 17.9 17.1 95 0.5 WSW 13 19 7 10 1000.6 999.8 13.6
25/10:06pm 18.3 18.0 17.3 94 0.6 WSW 15 20 8 11 1000.7 999.9 10.2
25/10:04pm 18.3 18.3 17.3 94 0.6 WSW 13 20 7 11 1000.6 999.8 9.2
25/10:00pm 18.3 18.3 17.3 94 0.6 WSW 13 17 7 9 1000.4 999.6 9.0
25/09:45pm 18.1 19.4 17.1 94 0.6 ESE 6 11 3 6 999.9 999.1 8.4
25/09:30pm 18.1 18.1 17.1 94 0.6 ESE 13 15 7 8 999.5 998.7 7.6
25/09:00pm 18.2 18.1 17.0 93 0.7 SE 13 15 7 8 999.3 998.5 7.6
25/08:30pm 18.2 17.7 16.9 92 0.8 ENE 15 22 8 12 999.8 999.0 7.6
25/08:00pm 17.7 14.5 16.4 92 0.8 ENE 28 37 15 20 999.6 998.8 7.4
25/07:30pm 17.6 15.2 16.5 93 0.7 E 24 32 13 17 1000.1 999.3 6.8
25/07:00pm 18.0 17.7 16.5 91 0.9 SE 13 19 7 10 1001.2 1000.5 4.4
25/06:30pm 18.3 18.1 16.6 90 1.0 SE 13 19 7 10 1001.2 1000.5 2.8
25/06:00pm 19.3 18.4 16.9 86 1.5 SSE 17 24 9 13 1000.4 999.6 1.4
25/05:30pm 19.9 18.4 16.7 82 2.0 SSE 20 26 11 14 999.8 999.0 0.4

Other formats

Comma delimited format used in spreadsheet applications
http://www.bom.gov.au/fwo/IDV60801/IDV60801.94829.axf

JavaScript Object Notation format (JSON) in row-major order
http://www.bom.gov.au/fwo/IDV60801/IDV60801.94829.json

Data quality

Most of these data are generated automatically and are frequently updated. Quality checks on data are not normally performed. It is possible for incorrect values to appear. Refer to information at About Latest Weather Observations and please check the disclaimer before using these data.